| time (UTC) | temp C | wind direction | speed KPH | gust KPH | rain 1hr cm | rain 24hr cm | rain mn cm | humidity % | barometer mb |
| 20260906003052 | 25 | 68 | 9.7 | 17.7 | 0.00 | 0.00 | 0.00 | 87 | 1010.0 |
| 20260906001549 | 25 | 44 | 8.0 | 16.1 | 0.00 | 0.00 | 0.00 | 85 | 1009.8 |
| 20260906000055 | 26 | 26 | 11.3 | 19.3 | 0.00 | 0.00 | 0.00 | 81 | 1009.9 |
| 20260905234547 | 26 | 16 | 8.0 | 14.5 | 0.00 | 0.00 | 0.00 | 81 | 1009.9 |
| 20260905233050 | 27 | 338 | 16.1 | 25.7 | 0.00 | 0.00 | 0.00 | 78 | 1009.6 |
| 20260905231548 | 27 | 355 | 14.5 | 24.1 | 0.00 | 0.00 | 0.00 | 78 | 1009.4 |
| 20260905230045 | 28 | 360 | 12.9 | 19.3 | 0.00 | 0.00 | 0.00 | 79 | 1009.3 |
| 20260905224543 | 27 | 355 | 4.8 | 9.7 | 0.00 | 0.00 | 0.00 | 81 | 1009.3 |
| 20260905223042 | 28 | 355 | 8.0 | 14.5 | 0.00 | 0.00 | 0.00 | 79 | 1009.3 |
| 20260905221558 | 28 | 22 | 9.7 | 17.7 | 0.00 | 0.00 | 0.00 | 78 | 1009.2 |
| 20260905220041 | 28 | 19 | 12.9 | 20.9 | 0.00 | 0.00 | 0.00 | 76 | 1009.0 |
| 20260905214539 | 29 | 18 | 14.5 | 20.9 | 0.00 | 0.00 | 0.00 | 76 | 1008.9 |
| 20260905213039 | 29 | 26 | 11.3 | 17.7 | 0.00 | 0.00 | 0.00 | 77 | 1008.7 |
| 20260905211537 | 28 | 9 | 14.5 | 20.9 | 0.00 | 0.00 | 0.00 | 77 | 1008.6 |
| 20260905210035 | 28 | 36 | 14.5 | 25.7 | 0.00 | 0.00 | 0.00 | 78 | 1008.8 |
| 20260905204538 | 29 | 32 | 16.1 | 27.4 | 0.00 | 0.00 | 0.00 | 78 | 1008.8 |
| 20260905203036 | 29 | 355 | 12.9 | 20.9 | 0.00 | 0.00 | 0.00 | 78 | 1008.8 |
| 20260905201533 | 28 | 17 | 11.3 | 22.5 | 0.00 | 0.00 | 0.00 | 80 | 1009.0 |
| 20260905200032 | 30 | 17 | 14.5 | 20.9 | 0.00 | 0.00 | 0.00 | 73 | 1009.2 |
| 20260905194529 | 30 | 321 | 9.7 | 14.5 | 0.00 | 0.00 | 0.00 | 72 | 1009.0 |
| 20260905193034 | 30 | 300 | 8.0 | 16.1 | 0.00 | 0.00 | 0.00 | 72 | 1009.3 |
| 20260905191529 | 29 | 298 | 9.7 | 16.1 | 0.00 | 0.00 | 0.00 | 73 | 1009.4 |
| 20260905190030 | 30 | 324 | 8.0 | 19.3 | 0.00 | 0.00 | 0.00 | 71 | 1009.7 |
| 20260905184520 | 31 | 300 | 3.2 | 14.5 | 0.00 | 0.00 | 0.00 | 69 | 1009.8 |
| 20260905183013 | 30 | 317 | 8.0 | 14.5 | 0.00 | 0.00 | 0.00 | 70 | 1010.0 |
| 20260905181507 | 30 | 302 | 9.7 | 17.7 | 0.00 | 0.00 | 0.00 | 67 | 1010.1 |
| 20260905180008 | 30 | 214 | 3.2 | 12.9 | 0.00 | 0.00 | 0.00 | 70 | 1010.2 |
| 20260905174502 | 29 | 327 | 8.0 | 17.7 | 0.00 | 0.00 | 0.00 | 69 | 1010.3 |
| 20260905173119 | 28 | 176 | 6.4 | 17.7 | 0.00 | 0.00 | 0.00 | 72 | 1010.4 |
| 20260905171557 | 28 | 205 | 6.4 | 16.1 | 0.00 | 0.00 | 0.00 | 71 | 1010.6 |
| 20260905170053 | 28 | 207 | 9.7 | 19.3 | 0.00 | 0.00 | 0.00 | 72 | 1010.8 |
| 20260905164555 | 28 | 170 | 8.0 | 19.3 | 0.00 | 0.00 | 0.00 | 74 | 1011.0 |
| 20260905163049 | 27 | 242 | 8.0 | 16.1 | 0.00 | 0.00 | 0.00 | 73 | 1011.1 |
| 20260905161547 | 27 | 223 | 11.3 | 17.7 | 0.00 | 0.00 | 0.00 | 74 | 1011.2 |
| 20260905160055 | 27 | 251 | 6.4 | 14.5 | 0.00 | 0.00 | 0.00 | 74 | 1011.2 |
| 20260905154549 | 27 | 213 | 8.0 | 17.7 | 0.00 | 0.00 | 0.00 | 75 | 1011.1 |
| 20260905153040 | 26 | 209 | 6.4 | 14.5 | 0.00 | 0.00 | 0.00 | 77 | 1011.1 |
| 20260905151539 | 25 | 207 | 12.9 | 24.1 | 0.00 | 0.00 | 0.00 | 79 | 1011.1 |
| 20260905150041 | 25 | 201 | 4.8 | 16.1 | 0.00 | 0.00 | 0.00 | 79 | 1011.2 |
| 20260905144535 | 25 | 191 | 6.4 | 14.5 | 0.00 | 0.00 | 0.00 | 80 | 1011.4 |
| 20260905143032 | 24 | 213 | 9.7 | 16.1 | 0.00 | 0.00 | 0.00 | 82 | 1011.0 |
| 20260905141530 | 23 | 207 | 9.7 | 25.7 | 0.00 | 0.00 | 0.00 | 83 | 1011.0 |
| 20260905140028 | 23 | 196 | 12.9 | 17.7 | 0.00 | 0.00 | 0.00 | 84 | 1010.8 |
| 20260905134528 | 23 | 195 | 9.7 | 20.9 | 0.00 | 0.00 | 0.00 | 83 | 1010.7 |
| 20260905133027 | 23 | 192 | 12.9 | 20.9 | 0.00 | 0.00 | 0.00 | 85 | 1010.5 |
| 20260905131524 | 23 | 195 | 14.5 | 20.9 | 0.00 | 0.00 | 0.00 | 85 | 1010.5 |
| 20260905130021 | 22 | 191 | 16.1 | 22.5 | 0.00 | 0.00 | 0.00 | 87 | 1010.8 |
| 20260905124518 | 22 | 186 | 12.9 | 22.5 | 0.00 | 0.00 | 0.00 | 89 | 1010.8 |
| 20260905123013 | 21 | 178 | 11.3 | 20.9 | 0.00 | 0.00 | 0.00 | 91 | 1010.7 |
| 20260905121509 | 21 | 178 | 11.3 | 19.3 | 0.00 | 0.00 | 0.00 | 92 | 1010.8 |
| 20260905120019 | 21 | 175 | 9.7 | 16.1 | 0.00 | 0.00 | 0.00 | 92 | 1010.9 |
| 20260905114504 | 21 | 161 | 8.0 | 16.1 | 0.00 | 0.00 | 0.00 | 91 | 1010.9 |
| 20260905113001 | 21 | 158 | 8.0 | 19.3 | 0.00 | 0.00 | 0.00 | 91 | 1010.8 |
| 20260905111653 | 21 | 138 | 12.9 | 27.4 | 0.00 | 0.00 | 0.00 | 90 | 1010.5 |
| 20260905110056 | 21 | 152 | 12.9 | 22.5 | 0.00 | 0.00 | 0.00 | 90 | 1010.5 |
| 20260905104553 | 21 | 185 | 16.1 | 30.6 | 0.00 | 0.00 | 0.00 | 89 | 1010.4 |
| 20260905103053 | 22 | 140 | 17.7 | 27.4 | 0.00 | 0.00 | 0.00 | 90 | 1010.4 |
| 20260905101545 | 23 | 130 | 22.5 | 33.8 | 0.00 | 0.00 | 0.00 | 92 | 1010.4 |
| 20260905100043 | 24 | 117 | 4.8 | 14.5 | 0.00 | 0.00 | 0.00 | 95 | 1010.3 |
| 20260905094543 | 23 | 88 | 9.7 | 17.7 | 0.00 | 0.00 | 0.00 | 95 | 1010.2 |
| 20260905093042 | 23 | 215 | 0.0 | 3.2 | 0.00 | 0.00 | 0.00 | 93 | 1009.8 |
| 20260905091539 | 23 | 215 | 4.8 | 8.0 | 0.00 | 0.00 | 0.00 | 94 | 1009.7 |
| 20260905090039 | 24 | 225 | 1.6 | 4.8 | 0.00 | 0.00 | 0.00 | 92 | 1009.7 |
| 20260905084535 | 24 | 285 | 3.2 | 4.8 | 0.00 | 0.00 | 0.00 | 91 | 1009.7 |
| 20260905083033 | 24 | 286 | 0.0 | 1.6 | 0.00 | 0.00 | 0.00 | 91 | 1009.6 |
| 20260905081533 | 25 | 286 | 0.0 | 3.2 | 0.00 | 0.00 | 0.00 | 91 | 1009.5 |
| 20260905080034 | 25 | 286 | 0.0 | 6.4 | 0.00 | 0.00 | 0.00 | 91 | 1009.5 |
| 20260905074531 | 25 | 292 | 4.8 | 8.0 | 0.00 | 0.00 | 0.00 | 91 | 1009.6 |
| 20260905073036 | 25 | 333 | 9.7 | 20.9 | 0.00 | 0.00 | 0.00 | 89 | 1009.7 |
| 20260905071527 | 25 | 273 | 1.6 | 6.4 | 0.00 | 0.00 | 0.00 | 88 | 1009.2 |
| 20260905070044 | 25 | 276 | 1.6 | 6.4 | 0.00 | 0.00 | 0.00 | 87 | 1008.7 |
| 20260905064539 | 25 | 269 | 3.2 | 6.4 | 0.00 | 0.00 | 0.00 | 87 | 1008.7 |
| 20260905063024 | 26 | 267 | 3.2 | 9.7 | 0.00 | 0.00 | 0.00 | 85 | 1008.9 |
| 20260905061521 | 26 | 236 | 3.2 | 8.0 | 0.00 | 0.00 | 0.00 | 85 | 1009.2 |
| 20260905060023 | 26 | 218 | 4.8 | 9.7 | 0.00 | 0.00 | 0.00 | 86 | 1009.4 |
| 20260905054532 | 26 | 246 | 1.6 | 4.8 | 0.00 | 0.00 | 0.00 | 86 | 1009.6 |
| 20260905053017 | 26 | 227 | 1.6 | 6.4 | 0.00 | 0.00 | 0.00 | 85 | 1009.8 |
| 20260905051523 | 26 | 248 | 3.2 | 4.8 | 0.00 | 0.00 | 0.00 | 85 | 1009.8 |
| 20260905050013 | 26 | 232 | 3.2 | 6.4 | 0.00 | 0.00 | 0.00 | 86 | 1009.8 |
| 20260905044509 | 26 | 225 | 3.2 | 4.8 | 0.00 | 0.00 | 0.00 | 89 | 1010.0 |
| 20260905043003 | 26 | 225 | 0.0 | 6.4 | 0.00 | 0.00 | 0.00 | 91 | 1010.2 |
| 20260905041603 | 25 | 213 | 3.2 | 6.4 | 0.00 | 0.00 | 0.00 | 93 | 1010.3 |
| 20260905041501 | 25 | 213 | 3.2 | 6.4 | 0.00 | 0.00 | 0.00 | 93 | 1010.3 |
| 20260905040057 | 25 | 182 | 1.6 | 3.2 | 0.00 | 0.00 | 0.00 | 91 | 1010.4 |
| 20260905034604 | 26 | 183 | 0.0 | 1.6 | 0.00 | 0.00 | 0.00 | 91 | 1010.5 |
| 20260905033055 | 26 | 183 | 0.0 | 1.6 | 0.00 | 0.00 | 0.00 | 91 | 1010.6 |
| 20260905031556 | 26 | 183 | 0.0 | 6.4 | 0.00 | 0.00 | 0.00 | 93 | 1010.6 |
| 20260905030115 | 26 | 182 | 1.6 | 4.8 | 0.00 | 0.00 | 0.00 | 92 | 1010.6 |
| 20260905024554 | 26 | 178 | 4.8 | 8.0 | 0.00 | 0.00 | 0.00 | 91 | 1010.5 |
| 20260905023055 | 26 | 181 | 4.8 | 6.4 | 0.00 | 0.00 | 0.00 | 90 | 1010.5 |
| 20260905021556 | 26 | 178 | 4.8 | 8.0 | 0.00 | 0.00 | 0.00 | 90 | 1010.2 |
| 20260905020055 | 27 | 175 | 3.2 | 9.7 | 0.00 | 0.00 | 0.00 | 89 | 1010.2 |
| 20260905014557 | 27 | 176 | 4.8 | 8.0 | 0.00 | 0.00 | 0.00 | 88 | 1010.1 |
| 20260905013053 | 27 | 175 | 4.8 | 6.4 | 0.00 | 0.00 | 0.00 | 89 | 1010.1 |
| 20260905011552 | 27 | 175 | 3.2 | 6.4 | 0.00 | 0.00 | 0.00 | 89 | 1009.9 |
| 20260905010051 | 27 | 175 | 1.6 | 6.4 | 0.00 | 0.00 | 0.00 | 88 | 1010.0 |
| 20260905004551 | 27 | 175 | 4.8 | 6.4 | 0.00 | 0.00 | 0.00 | 88 | 1009.8 |